Time;durP1;ratioP1;P1;durP2;ratioP2;P2;SDS_P1;SDS_P2;PMS_P1;PMS_P2;Temp;Humidity;BMP_temperature;BMP_pressure;BME280_temperature;BME280_humidity;BME280_pressure;Samples;Min_cycle;Max_cycle;Signal;HPM_P1;HPM_P2
2022/04/13 02:03:50;;;;;;;;;;;;;;;11.25;94.69;98583.47;5113503;27;19964;-69
2022/04/13 02:06:17;;;;;;;;;;;;;;;11.22;95.03;98582.25;5115785;28;19954;-69
2022/04/13 02:08:44;;;;;;;;;;;;;;;11.19;95.02;98586.63;5116313;28;19959;-69
2022/04/13 02:11:11;;;;;;;;;;;;;;;11.18;95.24;98576.63;5115894;28;19973;-69
2022/04/13 02:13:39;;;;;;;;;;;;;;;11.25;92.88;98575.84;5098993;28;19945;-69
2022/04/13 02:16:08;;;;;;;;;;;;;;;11.28;93.32;98571.44;5095605;28;20315;-69
2022/04/13 02:18:35;;;;;;;;;;;;;;;11.33;92.56;98568.25;5095152;28;19975;-69
2022/04/13 02:21:03;;;;;;;;;;;;;;;11.37;92.05;98571.91;5104414;28;20341;-69
2022/04/13 02:23:30;;;;;;;;;;;;;;;11.37;91.60;98572.66;5115851;28;19953;-69
2022/04/13 02:25:59;;;;;;;;;;;;;;;11.29;94.03;98571.06;5116365;28;19952;-69
2022/04/13 02:28:26;;;;;;;;;;;;;;;11.19;93.85;98578.25;5117243;28;19979;-69
2022/04/13 02:30:54;;;;;;;;;;;;;;;11.06;95.79;98567.78;5120485;28;20011;-69
2022/04/13 02:33:21;;;;;;;;;;;;;;;10.97;96.95;98570.16;5120168;28;19950;-69
2022/04/13 02:35:48;;;;;;;;;;;;;;;10.89;96.92;98555.34;5119633;28;19949;-69
2022/04/13 02:38:16;;;;;;;;;;;;;;;10.86;96.97;98553.31;5119429;28;20271;-69
2022/04/13 02:40:44;;;;;;;;;;;;;;;10.81;97.41;98556.50;5119863;28;19960;-69
2022/04/13 02:43:11;;;;;;;;;;;;;;;10.78;98.89;98550.91;5102175;28;19948;-69
2022/04/13 02:45:38;;;;;;;;;;;;;;;10.73;99.14;98554.06;5119211;28;19959;-69
2022/04/13 02:48:07;;;;;;;;;;;;;;;10.68;99.11;98546.06;5120405;28;20256;-69
2022/04/13 02:50:34;;;;;;;;;;;;;;;10.62;99.62;98551.22;5119315;28;19963;-69
2022/04/13 02:53:01;;;;;;;;;;;;;;;10.56;100.00;98547.22;5120221;28;19951;-69
2022/04/13 02:55:29;;;;;;;;;;;;;;;10.53;100.00;98553.56;5119086;28;19952;-69
2022/04/13 02:57:56;;;;;;;;;;;;;;;10.48;100.00;98549.16;5119344;28;19949;-69
2022/04/13 03:00:23;;;;;;;;;;;;;;;10.45;100.00;98551.94;5119514;28;19957;-69
2022/04/13 03:02:51;;;;;;;;;;;;;;;10.38;100.00;98551.88;5119414;28;19973;-69
2022/04/13 03:05:18;;;;;;;;;;;;;;;10.39;100.00;98545.13;5119600;28;20363;-69
2022/04/13 03:07:45;;;;;;;;;;;;;;;10.35;100.00;98542.28;5119798;28;19945;-69
2022/04/13 03:10:13;;;;;;;;;;;;;;;10.24;100.00;98546.22;5119404;28;19980;-69
2022/04/13 03:12:42;;;;;;;;;;;;;;;10.12;100.00;98550.16;5119617;28;19948;-69
2022/04/13 03:15:10;;;;;;;;;;;;;;;10.02;100.00;98550.84;5101971;28;19948;-69
2022/04/13 03:17:38;;;;;;;;;;;;;;;9.89;100.00;98547.53;5119482;28;19956;-69
2022/04/13 03:20:07;;;;;;;;;;;;;;;9.84;100.00;98552.69;5118988;28;19971;-69
2022/04/13 03:22:34;;;;;;;;;;;;;;;9.82;100.00;98543.88;5119327;28;19957;-69
2022/04/13 03:25:02;;;;;;;;;;;;;;;9.80;100.00;98549.06;5119261;28;19952;-69
2022/04/13 03:27:30;;;;;;;;;;;;;;;9.79;100.00;98545.47;5119705;27;19948;-69
2022/04/13 03:29:58;;;;;;;;;;;;;;;9.79;100.00;98542.66;5101350;28;19956;-69
2022/04/13 03:32:25;;;;;;;;;;;;;;;9.73;100.00;98537.84;5119110;28;19945;-69
2022/04/13 03:34:52;;;;;;;;;;;;;;;9.66;100.00;98541.34;5119139;28;19948;-69
2022/04/13 03:37:19;;;;;;;;;;;;;;;9.58;100.00;98531.34;5118573;28;20257;-69
2022/04/13 03:39:47;;;;;;;;;;;;;;;9.49;100.00;98535.59;5118743;27;19967;-69
2022/04/13 03:42:14;;;;;;;;;;;;;;;9.46;100.00;98531.63;5115491;27;19972;-69
2022/04/13 03:44:41;;;;;;;;;;;;;;;9.44;100.00;98539.56;5104937;27;20225;-69
2022/04/13 03:47:09;;;;;;;;;;;;;;;9.50;100.00;98538.03;5118611;28;19952;-69
2022/04/13 03:49:36;;;;;;;;;;;;;;;9.58;100.00;98536.91;5119919;27;19947;-69
2022/04/13 03:52:04;;;;;;;;;;;;;;;9.69;100.00;98537.78;5118229;28;19959;-69
2022/04/13 03:54:31;;;;;;;;;;;;;;;9.77;100.00;98535.88;5116528;27;20296;-69
2022/04/13 03:56:59;;;;;;;;;;;;;;;9.80;100.00;98537.88;5119025;27;19954;-69
2022/04/13 03:59:26;;;;;;;;;;;;;;;9.80;100.00;98541.50;5122370;27;19961;-69
2022/04/13 04:01:54;;;;;;;;;;;;;;;9.81;100.00;98537.50;5100013;27;20890;-69
2022/04/13 04:04:21;;;;;;;;;;;;;;;9.83;100.00;98545.47;5077374;28;19958;-69
2022/04/13 04:06:48;;;;;;;;;;;;;;;9.85;100.00;98546.69;5060756;28;19949;-69
2022/04/13 04:09:16;;;;;;;;;;;;;;;9.91;100.00;98542.38;5081005;28;20235;-69
2022/04/13 04:11:43;;;;;;;;;;;;;;;9.91;100.00;98542.38;5079781;28;19947;-69
2022/04/13 04:14:10;;;;;;;;;;;;;;;9.91;100.00;98549.94;5067039;28;19981;-69
2022/04/13 04:16:37;;;;;;;;;;;;;;;9.88;100.00;98547.91;5080649;28;20596;-69
2022/04/13 04:19:05;;;;;;;;;;;;;;;9.87;100.00;98541.53;5077676;28;19973;-69
2022/04/13 04:21:32;;;;;;;;;;;;;;;9.81;100.00;98547.84;5077035;28;19982;-69
2022/04/13 04:23:59;;;;;;;;;;;;;;;9.68;100.00;98541.75;5080466;28;20342;-69
2022/04/13 04:26:27;;;;;;;;;;;;;;;9.57;100.00;98548.44;5077665;28;19955;-69
2022/04/13 04:28:54;;;;;;;;;;;;;;;9.50;100.00;98549.19;5077272;28;19966;-69
2022/04/13 04:31:49;;;;;;;;;;;;;;;9.45;100.00;98562.69;5073199;28;19947;-69
2022/04/13 04:34:08;;;;;;;;;;;;;;;9.36;100.00;98556.63;5077736;28;20434;-69
2022/04/13 04:36:36;;;;;;;;;;;;;;;9.30;100.00;98556.16;5077042;28;19949;-69
2022/04/13 04:39:03;;;;;;;;;;;;;;;9.26;100.00;98549.75;5064859;28;19967;-69
2022/04/13 04:41:30;;;;;;;;;;;;;;;9.18;100.00;98557.25;5056961;28;19956;-69
2022/04/13 04:43:58;;;;;;;;;;;;;;;9.13;100.00;98557.59;5056920;28;19974;-69
2022/04/13 04:46:25;;;;;;;;;;;;;;;9.09;100.00;98553.97;5057147;28;19968;-69
2022/04/13 04:48:52;;;;;;;;;;;;;;;9.10;100.00;98558.34;5056986;28;19948;-69
2022/04/13 04:51:20;;;;;;;;;;;;;;;9.12;100.00;98569.16;5066275;28;19954;-69
2022/04/13 04:53:47;;;;;;;;;;;;;;;9.10;100.00;98565.91;5060885;28;20245;-68
2022/04/13 04:56:15;;;;;;;;;;;;;;;9.10;100.00;98568.69;5059285;28;19958;-69
2022/04/13 04:58:42;;;;;;;;;;;;;;;9.14;100.00;98572.34;5057793;28;19954;-69
2022/04/13 05:01:09;;;;;;;;;;;;;;;9.15;100.00;98568.34;5056609;28;19952;-69
2022/04/13 05:03:38;;;;;;;;;;;;;;;9.19;100.00;98572.78;5085680;28;19971;-69
2022/04/13 05:06:05;;;;;;;;;;;;;;;9.22;100.00;98569.25;5097646;28;19978;-69
2022/04/13 05:08:33;;;;;;;;;;;;;;;9.35;100.00;98569.78;5097577;28;19949;-69
2022/04/13 05:11:01;;;;;;;;;;;;;;;9.51;100.00;98572.34;5096291;28;19946;-69
2022/04/13 05:13:29;;;;;;;;;;;;;;;9.71;100.00;98577.31;5103711;28;20440;-69
2022/04/13 05:15:56;;;;;;;;;;;;;;;10.11;100.00;98582.03;5096440;28;19952;-69
2022/04/13 05:18:23;;;;;;;;;;;;;;;10.51;100.00;98573.53;5096166;28;19949;-69
2022/04/13 05:20:51;;;;;;;;;;;;;;;10.79;100.00;98580.47;5095813;28;19966;-69
2022/04/13 05:23:18;;;;;;;;;;;;;;;10.89;100.00;98576.91;5095784;28;19954;-69
2022/04/13 05:25:46;;;;;;;;;;;;;;;10.87;100.00;98582.91;5094553;28;20358;-69
2022/04/13 05:28:15;;;;;;;;;;;;;;;10.93;100.00;98588.94;5096287;28;19954;-69
2022/04/13 05:30:42;;;;;;;;;;;;;;;11.11;100.00;98593.41;5099995;28;20232;-69
2022/04/13 05:33:09;;;;;;;;;;;;;;;11.44;100.00;98585.91;5100105;28;20288;-69
2022/04/13 05:35:37;;;;;;;;;;;;;;;11.73;100.00;98596.78;5095292;28;20219;-69
2022/04/13 05:38:05;;;;;;;;;;;;;;;11.96;100.00;98598.41;5096241;28;19961;-69
2022/04/13 05:40:32;;;;;;;;;;;;;;;12.18;100.00;98605.59;5096457;28;19967;-69
2022/04/13 05:43:00;;;;;;;;;;;;;;;12.35;100.00;98599.19;5107317;28;20259;-69
2022/04/13 05:45:27;;;;;;;;;;;;;;;12.53;100.00;98603.56;5102663;28;19954;-69
2022/04/13 05:47:57;;;;;;;;;;;;;;;12.72;100.00;98607.94;5112691;28;20024;-69
2022/04/13 05:50:25;;;;;;;;;;;;;;;13.04;100.00;98605.84;5116531;28;19954;-69
2022/04/13 05:52:52;;;;;;;;;;;;;;;13.32;100.00;98604.16;5115623;28;19955;-69
2022/04/13 05:55:19;;;;;;;;;;;;;;;13.83;95.87;98610.69;5115284;28;20231;-69
2022/04/13 05:57:46;;;;;;;;;;;;;;;13.83;92.83;98616.28;5116627;28;20240;-69
2022/04/13 06:00:14;;;;;;;;;;;;;;;14.19;88.14;98627.25;5116565;28;19980;-69
2022/04/13 06:02:41;;;;;;;;;;;;;;;14.70;81.42;98632.88;5116328;28;19972;-69
2022/04/13 06:05:09;;;;;;;;;;;;;;;15.05;80.09;98626.06;5116671;28;20404;-69
2022/04/13 06:07:37;;;;;;;;;;;;;;;15.52;74.84;98632.75;5116760;28;19956;-69
2022/04/13 06:10:05;;;;;;;;;;;;;;;16.42;69.45;98626.16;5116024;28;20245;-69
2022/04/13 06:12:33;;;;;;;;;;;;;;;16.92;66.31;98635.34;5116529;28;19954;-69
2022/04/13 06:15:03;;;;;;;;;;;;;;;17.27;63.84;98644.38;5115508;28;20356;-69
2022/04/13 06:17:31;;;;;;;;;;;;;;;17.94;59.49;98640.97;5115954;28;19961;-69
2022/04/13 06:19:58;;;;;;;;;;;;;;;17.21;59.29;98646.94;5116159;28;19977;-69
2022/04/13 06:22:26;;;;;;;;;;;;;;;17.47;59.86;98642.34;5116565;28;19960;-69
2022/04/13 06:24:53;;;;;;;;;;;;;;;17.05;60.67;98647.63;5116326;28;19949;-69
2022/04/13 06:27:20;;;;;;;;;;;;;;;17.03;62.10;98654.94;5116075;28;19960;-69
2022/04/13 06:29:48;;;;;;;;;;;;;;;16.93;63.67;98658.75;5116243;28;20324;-69
2022/04/13 06:32:15;;;;;;;;;;;;;;;16.74;65.55;98648.22;5115942;28;19952;-69
2022/04/13 06:34:42;;;;;;;;;;;;;;;16.82;65.09;98655.34;5116356;28;19946;-69
2022/04/13 06:37:10;;;;;;;;;;;;;;;16.58;66.44;98660.19;5117044;28;19941;-69
2022/04/13 06:39:37;;;;;;;;;;;;;;;16.07;68.14;98664.19;5116188;28;19977;-69
2022/04/13 06:42:04;;;;;;;;;;;;;;;15.47;71.97;98667.06;5115849;28;20286;-69
2022/04/13 06:44:32;;;;;;;;;;;;;;;15.53;77.13;98662.53;5115994;28;19948;-69
2022/04/13 06:46:59;;;;;;;;;;;;;;;15.31;75.77;98661.97;5115943;28;19957;-69
2022/04/13 06:49:27;;;;;;;;;;;;;;;15.36;74.80;98663.50;5116072;28;19955;-69
2022/04/13 06:51:54;;;;;;;;;;;;;;;14.98;78.90;98662.75;5116291;28;19951;-69
2022/04/13 06:54:27;;;;;;;;;;;;;;;15.00;81.50;98661.13;5115936;28;19959;-69
2022/04/13 06:56:54;;;;;;;;;;;;;;;14.83;78.87;98659.28;5112644;28;20329;-69
2022/04/13 06:59:22;;;;;;;;;;;;;;;15.03;84.81;98663.09;5115845;28;20240;-69
2022/04/13 07:01:49;;;;;;;;;;;;;;;14.67;82.51;98666.69;5115473;28;19975;-69
2022/04/13 07:04:17;;;;;;;;;;;;;;;14.65;82.31;98667.09;5116022;28;19980;-69
2022/04/13 07:06:45;;;;;;;;;;;;;;;14.38;81.16;98671.75;5115190;28;19963;-69
2022/04/13 07:09:12;;;;;;;;;;;;;;;14.40;84.00;98672.16;5115401;28;20340;-69
2022/04/13 07:11:39;;;;;;;;;;;;;;;14.46;85.48;98670.47;5115695;28;19960;-69
2022/04/13 07:14:07;;;;;;;;;;;;;;;14.26;88.27;98673.03;5115392;28;19954;-69
2022/04/13 07:16:34;;;;;;;;;;;;;;;14.06;87.29;98677.56;5118739;28;20331;-69
2022/04/13 07:19:01;;;;;;;;;;;;;;;14.14;90.03;98673.50;5119259;28;19959;-69
2022/04/13 07:21:28;;;;;;;;;;;;;;;13.93;89.13;98675.66;5119251;28;19974;-69
2022/04/13 07:24:10;;;;;;;;;;;;;;;14.08;91.71;98677.97;5119441;28;20369;-69
2022/04/13 07:26:38;;;;;;;;;;;;;;;13.99;91.28;98676.81;5119159;28;19956;-69
2022/04/13 07:29:05;;;;;;;;;;;;;;;14.14;91.02;98681.13;5118921;28;19950;-69
2022/04/13 07:31:33;;;;;;;;;;;;;;;13.95;91.57;98684.47;5118883;28;19950;-69
2022/04/13 07:34:02;;;;;;;;;;;;;;;14.16;93.25;98675.91;5118695;28;19950;-69
2022/04/13 07:36:30;;;;;;;;;;;;;;;14.06;89.34;98683.19;5119303;28;19960;-69
2022/04/13 07:38:57;;;;;;;;;;;;;;;13.98;92.85;98678.03;5119277;28;19954;-69
2022/04/13 07:41:24;;;;;;;;;;;;;;;13.65;91.52;98685.03;5118424;28;19978;-69
2022/04/13 07:43:51;;;;;;;;;;;;;;;13.76;94.59;98686.63;5118998;28;19957;-69
2022/04/13 07:46:19;;;;;;;;;;;;;;;13.62;93.81;98680.28;5118876;28;20248;-69
2022/04/13 07:48:47;;;;;;;;;;;;;;;13.76;96.87;98683.81;5119491;28;19951;-69
2022/04/13 07:51:14;;;;;;;;;;;;;;;13.73;97.89;98690.25;5118551;28;20532;-69
2022/04/13 07:53:41;;;;;;;;;;;;;;;13.79;99.80;98688.59;5118943;28;19948;-69
2022/04/13 07:56:08;;;;;;;;;;;;;;;13.70;97.71;98695.88;5118626;28;19958;-69
2022/04/13 07:58:36;;;;;;;;;;;;;;;13.72;95.93;98687.81;5118436;28;19961;-69
2022/04/13 08:01:03;;;;;;;;;;;;;;;14.10;97.92;98697.25;5118634;28;19968;-69
2022/04/13 08:03:30;;;;;;;;;;;;;;;14.19;97.00;98701.19;5118574;28;19980;-69
2022/04/13 08:06:02;;;;;;;;;;;;;;;14.10;93.62;98689.63;5118473;28;20371;-69
2022/04/13 08:08:30;;;;;;;;;;;;;;;14.00;94.21;98692.50;5118235;28;19956;-69
2022/04/13 08:10:57;;;;;;;;;;;;;;;14.21;96.95;98701.59;5118208;28;20031;-69
2022/04/13 08:13:24;;;;;;;;;;;;;;;14.17;98.04;98700.81;5118137;27;19948;-69
2022/04/13 08:16:08;;;;;;;;;;;;;;;14.44;90.17;98692.63;5118142;28;19956;-69
2022/04/13 08:18:37;;;;;;;;;;;;;;;14.26;92.27;98694.72;5118421;28;19951;-69
2022/04/13 08:21:06;;;;;;;;;;;;;;;14.48;93.63;98696.19;5117667;28;19979;-69
2022/04/13 08:23:33;;;;;;;;;;;;;;;14.57;90.37;98702.16;5118263;27;20235;-69
2022/04/13 08:26:00;;;;;;;;;;;;;;;14.60;91.23;98698.50;5117637;28;19955;-69
2022/04/13 08:28:27;;;;;;;;;;;;;;;14.74;90.19;98709.66;5117837;28;20256;-69
2022/04/13 08:30:55;;;;;;;;;;;;;;;14.51;90.94;98715.06;5118329;28;19952;-69
2022/04/13 08:33:22;;;;;;;;;;;;;;;14.39;93.39;98709.94;5117895;28;20240;-69
2022/04/13 08:35:50;;;;;;;;;;;;;;;14.39;96.40;98721.19;5116019;28;19948;-69
2022/04/13 08:38:18;;;;;;;;;;;;;;;14.69;97.61;98712.09;5117955;28;19984;-69
2022/04/13 08:40:49;;;;;;;;;;;;;;;14.66;89.83;98719.38;5117435;28;19977;-69
2022/04/13 08:43:22;;;;;;;;;;;;;;;14.72;98.28;98712.06;5117812;28;19947;-69
2022/04/13 08:45:53;;;;;;;;;;;;;;;14.75;100.00;98719.69;5117846;28;19957;-69
2022/04/13 08:48:24;;;;;;;;;;;;;;;14.90;97.00;98712.72;5117790;28;19951;-69
2022/04/13 08:50:58;;;;;;;;;;;;;;;14.99;92.52;98715.84;5117415;28;19957;-69
2022/04/13 08:53:28;;;;;;;;;;;;;;;14.74;92.49;98715.28;5117801;28;20356;-69
2022/04/13 08:55:56;;;;;;;;;;;;;;;14.81;91.61;98718.03;5117634;28;19949;-69
2022/04/13 08:58:36;;;;;;;;;;;;;;;15.05;87.50;98722.63;5117422;27;19950;-69
2022/04/13 09:01:08;;;;;;;;;;;;;;;14.85;91.91;98720.81;5116983;28;19974;-69
2022/04/13 09:03:41;;;;;;;;;;;;;;;15.02;94.36;98719.84;5116726;28;19981;-69
2022/04/13 09:06:09;;;;;;;;;;;;;;;15.30;91.55;98721.56;5117590;28;19948;-69
2022/04/13 09:08:42;;;;;;;;;;;;;;;15.31;79.48;98718.31;5116820;28;19954;-69
2022/04/13 09:11:10;;;;;;;;;;;;;;;15.41;81.30;98720.22;5117482;28;19959;-69
2022/04/13 09:13:38;;;;;;;;;;;;;;;15.44;81.82;98721.41;5116998;28;19957;-69
2022/04/13 09:16:05;;;;;;;;;;;;;;;15.54;86.84;98726.16;5116792;28;19950;-69
2022/04/13 09:18:32;;;;;;;;;;;;;;;15.25;80.21;98728.47;5117263;28;19977;-69
2022/04/13 09:21:00;;;;;;;;;;;;;;;15.25;78.48;98722.03;5116404;28;19974;-69
2022/04/13 09:23:28;;;;;;;;;;;;;;;15.12;80.18;98733.00;5116489;28;19953;-69
2022/04/13 09:25:56;;;;;;;;;;;;;;;15.27;80.36;98730.84;5116628;28;20346;-69
2022/04/13 09:28:23;;;;;;;;;;;;;;;15.35;80.67;98724.72;5117136;28;19945;-69
2022/04/13 09:30:51;;;;;;;;;;;;;;;15.29;85.03;98728.41;5116528;28;19949;-69
2022/04/13 09:33:19;;;;;;;;;;;;;;;15.48;81.02;98725.03;5116773;28;19959;-69
2022/04/13 09:35:46;;;;;;;;;;;;;;;15.49;77.77;98732.25;5116599;28;19953;-69
2022/04/13 09:38:14;;;;;;;;;;;;;;;15.67;79.04;98727.22;5116201;28;20371;-69
2022/04/13 09:40:42;;;;;;;;;;;;;;;15.59;73.19;98720.06;5116637;28;19954;-69
2022/04/13 09:43:16;;;;;;;;;;;;;;;15.40;73.40;98720.66;5116753;28;19944;-69
2022/04/13 09:45:48;;;;;;;;;;;;;;;15.62;69.40;98714.38;5116762;28;19980;-69
2022/04/13 09:48:16;;;;;;;;;;;;;;;15.53;75.29;98718.91;5116436;28;19956;-69
2022/04/13 09:50:44;;;;;;;;;;;;;;;15.72;85.56;98716.25;5116336;28;19948;-69
2022/04/13 09:53:13;;;;;;;;;;;;;;;15.76;73.66;98716.22;5116382;28;20369;-69
2022/04/13 09:55:49;;;;;;;;;;;;;;;15.90;71.70;98723.69;5115901;28;20332;-69
2022/04/13 09:58:17;;;;;;;;;;;;;;;16.31;71.89;98711.00;5116269;28;19954;-69
2022/04/13 10:00:47;;;;;;;;;;;;;;;16.32;72.66;98708.97;5115753;28;19961;-69
2022/04/13 10:03:15;;;;;;;;;;;;;;;16.31;70.00;98713.81;5116002;28;19976;-69
2022/04/13 10:05:44;;;;;;;;;;;;;;;16.23;71.26;98714.34;5116606;28;19957;-69
2022/04/13 10:08:13;;;;;;;;;;;;;;;16.00;72.29;98708.63;5116323;28;19954;-69
2022/04/13 10:10:41;;;;;;;;;;;;;;;16.05;73.43;98705.34;5116011;28;19956;-69
2022/04/13 10:13:08;;;;;;;;;;;;;;;16.30;77.60;98709.41;5115960;28;19958;-69
2022/04/13 10:15:36;;;;;;;;;;;;;;;16.28;70.05;98694.94;5116350;28;19952;-69
2022/04/13 10:18:05;;;;;;;;;;;;;;;16.30;70.76;98703.78;5116165;28;19958;-69
2022/04/13 10:20:46;;;;;;;;;;;;;;;16.09;70.66;98700.47;5116573;28;19958;-69
2022/04/13 10:23:14;;;;;;;;;;;;;;;16.22;65.21;98698.63;5116181;28;19968;-69
2022/04/13 10:25:42;;;;;;;;;;;;;;;16.36;66.53;98698.41;5115876;28;19949;-69
2022/04/13 10:28:12;;;;;;;;;;;;;;;16.36;67.12;98702.03;5115845;28;19958;-69
2022/04/13 10:30:41;;;;;;;;;;;;;;;16.54;74.09;98695.34;5115910;28;19959;-69
2022/04/13 10:33:10;;;;;;;;;;;;;;;16.70;75.04;98687.81;5115655;28;20254;-69
2022/04/13 10:35:39;;;;;;;;;;;;;;;16.69;72.36;98689.06;5116189;28;20342;-69
2022/04/13 10:38:07;;;;;;;;;;;;;;;16.62;70.51;98682.72;5115516;28;19948;-69
2022/04/13 10:40:35;;;;;;;;;;;;;;;16.51;71.60;98679.22;5115763;28;19961;-69
2022/04/13 10:43:04;;;;;;;;;;;;;;;16.27;70.16;98687.69;5115716;28;19999;-69
2022/04/13 10:45:33;;;;;;;;;;;;;;;16.60;71.05;98685.19;5116096;28;19940;-69
2022/04/13 10:48:00;;;;;;;;;;;;;;;16.33;68.27;98688.78;5104775;28;19962;-69
2022/04/13 10:50:30;;;;;;;;;;;;;;;16.50;70.83;98678.47;5098586;28;19953;-69
2022/04/13 10:53:06;;;;;;;;;;;;;;;16.57;77.87;98666.28;5099856;28;19946;-69
2022/04/13 10:55:34;;;;;;;;;;;;;;;16.72;76.16;98674.06;5100863;28;19954;-69
2022/04/13 10:58:07;;;;;;;;;;;;;;;16.90;83.58;98668.09;5100388;28;19957;-69
2022/04/13 11:00:35;;;;;;;;;;;;;;;16.77;64.80;98678.44;5099826;28;20013;-69
2022/04/13 11:03:04;;;;;;;;;;;;;;;16.64;69.21;98674.63;5099460;28;19966;-69
2022/04/13 11:05:32;;;;;;;;;;;;;;;16.55;70.63;98672.34;5099729;28;19953;-69
2022/04/13 11:08:05;;;;;;;;;;;;;;;16.73;73.12;98669.19;5099363;28;20022;-69
2022/04/13 11:10:35;;;;;;;;;;;;;;;16.58;66.33;98679.16;5099673;28;20229;-69
2022/04/13 11:13:02;;;;;;;;;;;;;;;16.53;65.88;98679.66;5099388;28;19974;-69
2022/04/13 11:15:56;;;;;;;;;;;;;;;16.54;70.83;98673.56;5099417;28;19957;-69
2022/04/13 11:18:24;;;;;;;;;;;;;;;16.70;66.07;98675.72;5096938;28;19958;-69
2022/04/13 11:21:06;;;;;;;;;;;;;;;16.89;71.82;98678.63;5098793;28;19953;-69
2022/04/13 11:23:50;;;;;;;;;;;;;;;16.99;71.59;98674.00;5099112;28;19975;-69
2022/04/13 11:26:26;;;;;;;;;;;;;;;16.93;68.78;98672.88;5099054;28;19946;-69
2022/04/13 11:29:12;;;;;;;;;;;;;;;16.70;67.70;98673.69;5099228;28;19947;-69
2022/04/13 11:31:57;;;;;;;;;;;;;;;16.57;64.80;98678.38;5099112;28;19983;-69
2022/04/13 11:34:38;;;;;;;;;;;;;;;16.64;60.61;98669.78;5099277;28;19959;-69
2022/04/13 11:37:26;;;;;;;;;;;;;;;16.66;61.54;98674.97;5098083;28;20382;-69
2022/04/13 11:39:57;;;;;;;;;;;;;;;16.44;67.71;98666.84;5098605;28;19956;-69
2022/04/13 11:42:24;;;;;;;;;;;;;;;16.57;71.13;98669.91;5098318;28;19970;-69
2022/04/13 11:44:55;;;;;;;;;;;;;;;16.72;73.80;98667.63;5098611;28;19946;-69
2022/04/13 11:47:35;;;;;;;;;;;;;;;16.76;68.33;98669.16;5098951;28;19953;-69
2022/04/13 11:50:05;;;;;;;;;;;;;;;16.80;70.90;98674.75;5099391;28;19982;-69
2022/04/13 11:52:45;;;;;;;;;;;;;;;16.82;69.22;98670.25;5098337;28;19956;-69
2022/04/13 11:55:30;;;;;;;;;;;;;;;16.86;69.76;98673.03;5098733;28;20239;-69
2022/04/13 11:57:58;;;;;;;;;;;;;;;17.02;75.03;98665.44;5098633;28;20348;-69
2022/04/13 12:00:43;;;;;;;;;;;;;;;16.95;73.70;98661.94;5098117;28;20363;-69
2022/04/13 12:03:12;;;;;;;;;;;;;;;17.01;74.89;98658.22;5098489;28;19985;-69
2022/04/13 12:05:40;;;;;;;;;;;;;;;16.96;69.58;98660.72;5098604;28;19960;-69
2022/04/13 12:08:18;;;;;;;;;;;;;;;16.95;72.13;98653.47;5098244;28;19958;-69
2022/04/13 12:10:46;;;;;;;;;;;;;;;17.21;74.99;98655.41;5098770;28;19949;-69
2022/04/13 12:13:14;;;;;;;;;;;;;;;17.34;74.91;98653.50;5098613;28;19954;-69
2022/04/13 12:15:43;;;;;;;;;;;;;;;17.44;68.72;98663.00;5098475;28;19981;-69
2022/04/13 12:18:11;;;;;;;;;;;;;;;17.49;65.29;98659.69;5098505;28;19980;-69
2022/04/13 12:20:39;;;;;;;;;;;;;;;17.49;66.37;98656.84;5098172;28;20370;-69
2022/04/13 12:23:16;;;;;;;;;;;;;;;17.54;55.38;98667.69;5097693;28;19968;-69
2022/04/13 12:25:44;;;;;;;;;;;;;;;17.39;56.44;98666.34;5098116;28;19959;-69
2022/04/13 12:28:12;;;;;;;;;;;;;;;17.40;49.41;98663.09;5098160;28;19949;-69
2022/04/13 12:30:39;;;;;;;;;;;;;;;17.23;50.69;98664.25;5098285;28;20645;-69
2022/04/13 12:33:22;;;;;;;;;;;;;;;17.20;50.87;98667.13;5098036;28;20234;-69
2022/04/13 12:36:19;;;;;;;;;;;;;;;17.11;54.36;98662.06;5097732;28;19954;-69
2022/04/13 12:38:47;;;;;;;;;;;;;;;17.20;53.73;98655.81;5084725;28;19950;-69
2022/04/13 12:41:18;;;;;;;;;;;;;;;17.26;55.90;98648.44;5097676;28;19949;-69
2022/04/13 12:43:56;;;;;;;;;;;;;;;16.89;51.73;98644.72;5116327;28;19980;-69
2022/04/13 12:46:24;;;;;;;;;;;;;;;16.95;52.47;98645.81;5117580;27;19951;-69
2022/04/13 12:48:52;;;;;;;;;;;;;;;16.94;48.63;98640.59;5117392;28;19956;-69
2022/04/13 12:51:20;;;;;;;;;;;;;;;17.02;48.82;98650.50;5117823;28;19954;-69
2022/04/13 12:53:59;;;;;;;;;;;;;;;17.01;52.35;98646.09;5118078;28;19957;-69
2022/04/13 12:56:27;;;;;;;;;;;;;;;17.08;52.63;98635.47;5117412;27;20253;-69
2022/04/13 12:58:55;;;;;;;;;;;;;;;17.22;53.07;98633.56;5117762;28;19950;-69
2022/04/13 13:01:23;;;;;;;;;;;;;;;17.20;52.29;98628.38;5117349;28;19960;-69
2022/04/13 13:03:51;;;;;;;;;;;;;;;17.19;52.72;98640.13;5117545;28;19972;-69
2022/04/13 13:06:19;;;;;;;;;;;;;;;17.23;57.53;98633.16;5117570;28;19942;-69
2022/04/13 13:09:03;;;;;;;;;;;;;;;17.25;57.86;98633.50;5117493;28;19943;-69
2022/04/13 13:11:34;;;;;;;;;;;;;;;17.09;61.67;98633.44;5117540;28;19967;-69
2022/04/13 13:14:04;;;;;;;;;;;;;;;17.16;53.58;98629.69;5116365;28;20243;-69
2022/04/13 13:16:36;;;;;;;;;;;;;;;16.99;54.48;98623.16;5116960;27;20334;-69
2022/04/13 13:19:17;;;;;;;;;;;;;;;17.09;59.18;98625.75;5117389;28;19946;-69
2022/04/13 13:22:02;;;;;;;;;;;;;;;17.27;60.41;98621.75;5116817;27;19962;-69
2022/04/13 13:24:30;;;;;;;;;;;;;;;17.37;61.81;98615.09;5117614;27;19972;-69
2022/04/13 13:27:01;;;;;;;;;;;;;;;17.33;57.14;98620.84;5116756;28;19948;-69
2022/04/13 13:29:28;;;;;;;;;;;;;;;17.46;53.37;98616.09;5116751;28;19956;-69
2022/04/13 13:31:56;;;;;;;;;;;;;;;17.26;56.62;98614.53;5117321;27;19953;-69
2022/04/13 13:34:24;;;;;;;;;;;;;;;17.22;56.60;98605.31;5115806;28;19952;-69
2022/04/13 13:36:57;;;;;;;;;;;;;;;17.34;62.83;98604.66;5116954;28;20240;-69
2022/04/13 13:39:24;;;;;;;;;;;;;;;17.33;56.02;98606.72;5116962;28;19946;-69
2022/04/13 13:42:02;;;;;;;;;;;;;;;17.40;57.81;98600.91;5116998;28;20265;-69
2022/04/13 13:44:29;;;;;;;;;;;;;;;17.18;55.07;98602.56;5116068;28;19976;-69
2022/04/13 13:46:58;;;;;;;;;;;;;;;17.16;56.77;98599.41;5116283;28;19948;-69
2022/04/13 13:49:25;;;;;;;;;;;;;;;17.12;59.99;98609.94;5116358;28;19962;-69
2022/04/13 13:51:54;;;;;;;;;;;;;;;17.04;57.55;98591.56;5117285;27;19952;-69
2022/04/13 13:54:22;;;;;;;;;;;;;;;16.93;57.32;98594.59;5116321;28;19946;-69
2022/04/13 13:56:49;;;;;;;;;;;;;;;16.98;57.98;98590.47;5116612;28;19948;-69
2022/04/13 13:59:16;;;;;;;;;;;;;;;17.01;61.73;98581.13;5116545;28;19954;-69
2022/04/13 14:01:44;;;;;;;;;;;;;;;17.17;55.40;98594.50;5115972;28;19955;-69
2022/04/13 14:04:11;;;;;;;;;;;;;;;17.13;60.94;98591.78;5116658;28;19974;-69
2022/04/13 14:06:38;;;;;;;;;;;;;;;17.05;57.07;98587.50;5115822;28;20301;-69
2022/04/13 14:09:08;;;;;;;;;;;;;;;17.04;59.41;98589.50;5114937;28;20390;-69
2022/04/13 14:11:35;;;;;;;;;;;;;;;17.01;62.70;98590.41;5115955;28;20383;-69
2022/04/13 14:14:03;;;;;;;;;;;;;;;17.03;59.79;98589.97;5116295;28;20233;-69
2022/04/13 14:16:30;;;;;;;;;;;;;;;17.04;60.87;98586.69;5115982;28;19953;-69
2022/04/13 14:18:58;;;;;;;;;;;;;;;17.20;59.41;98585.19;5116411;28;19948;-69
2022/04/13 14:21:25;;;;;;;;;;;;;;;17.09;58.81;98585.41;5115992;28;19950;-69
2022/04/13 14:23:52;;;;;;;;;;;;;;;17.02;60.82;98580.69;5115842;28;20355;-69
2022/04/13 14:26:20;;;;;;;;;;;;;;;17.08;60.32;98583.81;5115756;28;20330;-69
2022/04/13 14:28:49;;;;;;;;;;;;;;;16.96;61.89;98582.44;5115740;28;20365;-69
2022/04/13 14:31:17;;;;;;;;;;;;;;;16.92;64.83;98570.38;5115875;28;19980;-69
2022/04/13 14:33:45;;;;;;;;;;;;;;;16.86;65.65;98568.50;5116306;28;20300;-69
2022/04/13 14:36:12;;;;;;;;;;;;;;;16.86;66.65;98566.50;5116720;28;20393;-69
2022/04/13 14:38:39;;;;;;;;;;;;;;;16.82;68.29;98567.78;5116130;28;19954;-69
2022/04/13 14:41:07;;;;;;;;;;;;;;;16.91;68.65;98579.31;5116260;28;20326;-69
2022/04/13 14:43:34;;;;;;;;;;;;;;;16.89;69.41;98579.75;5115879;28;19964;-69
2022/04/13 14:46:01;;;;;;;;;;;;;;;16.86;70.75;98571.34;5115939;28;19950;-69
2022/04/13 14:48:29;;;;;;;;;;;;;;;16.84;71.14;98571.78;5116365;28;20499;-69
2022/04/13 14:50:57;;;;;;;;;;;;;;;16.95;72.56;98574.38;5116232;28;19949;-69
2022/04/13 14:53:24;;;;;;;;;;;;;;;16.97;70.70;98571.94;5116482;28;19956;-69
2022/04/13 14:55:52;;;;;;;;;;;;;;;16.96;71.62;98570.34;5115438;28;19960;-69
2022/04/13 14:58:20;;;;;;;;;;;;;;;17.00;75.44;98566.19;5115533;28;19950;-69